Domov               UVHVVR             MKGP            O straneh              
ZDRAVSTVENO VARSTVO RASTLIN
  MREŽA AGROMET. POSTAJ
 ► PROGNOSTIČNA OBVESTILA
AGROMETEOROLOŠKI PODATKI -
ARSO
OBVLADOVANJE TVEGANJ ZARADI
NEUGODNIH VREMENSKIH RAZMER
  ► NARAVNE NESREČE
  ► SUŠA/MOČA
  ► NAMAKANJE
  ► ŽLED (gozdarstvo)
KARTOGRAFSKI PRIKAZI
SPLETNE POVEZAVE
PROJEKTI IN PUBLIKACIJE

AGROMETEOROLOŠKA MREŽA: VREMENSKE POSTAJE IN FENOLOŠKA OPAZOVANJA

Pregled podatkov za lokacijo Blanca, meteorološka postaja 27263

Pregled senzorjev na lokaciji

ID Ime Zadnja
vrednost
Datum
zadnje
spremembe
Tip
senzorja
2153 Relativna vlaga 2 m (% RH) 94,09 % RH 26.6.2017 00:03 Generic 0 - 100 %
2154 Omočenost lista (U) 9 U 26.6.2017 00:03 A730WET
2155 Padavine 0.2 mm (mm) 0 mm 26.6.2017 00:04 Generic
2158 Temperatura 2 m ( °C) 16,37 °C 26.6.2017 00:03 Generic -40 - +60 °C

Pregled podatkov zadnjih 24 ur

Zap.
št.
Datum in čas Blanca
Omočenost
lista
Padavine
0.2
mm
Relativna
vlaga
2
m
Temperatura
2
m
0 25.6.2017 23:00 9 0 94,05 16,29
1 25.6.2017 22:30 9 0 93,94 16,32
2 25.6.2017 22:00 9 0 93,78 16,53
3 25.6.2017 21:30 9,13 0 93,78 17,13
4 25.6.2017 21:00 9,2 0 93,72 17,22
5 25.6.2017 20:30 9,13 0 93,55 17,39
6 25.6.2017 20:00 9,87 0 93,37 17,57
7 25.6.2017 19:30 10 0 93,34 17,66
8 25.6.2017 19:00 9,93 0,2 93,02 17,63
9 25.6.2017 18:30 9,93 1 92,95 17,25
10 25.6.2017 18:00 10 8,4 89,84 17,8
11 25.6.2017 17:30 1,07 0,2 75,55 23,68
12 25.6.2017 17:00 0 0 69,31 25,03
13 25.6.2017 16:30 0 0 63,77 26,54
14 25.6.2017 16:00 0 0 64,41 26,13
15 25.6.2017 15:30 0 0 67,3 25,69
16 25.6.2017 15:00 0 0 74,51 24,63
17 25.6.2017 14:30 0 0 80,37 23,63
18 25.6.2017 14:00 0,07 0 87,19 21,99
19 25.6.2017 13:30 7 0 87,12 20,98
20 25.6.2017 13:00 10 2,2 77,83 24,16
21 25.6.2017 12:30 0 0 58,05 27,89
22 25.6.2017 12:00 0 0 55,93 28,09
23 25.6.2017 11:30 0 0 54,01 28,72
24 25.6.2017 11:00 0 0 55,36 28,5
25 25.6.2017 10:30 0 0 56,86 28,42
26 25.6.2017 10:00 0 0 59,21 28,11
27 25.6.2017 09:30 0 0 65 26,74
28 25.6.2017 09:00 0 0 66,09 26,76
29 25.6.2017 08:30 0 0 72,21 25,16
30 25.6.2017 08:00 0 0 79,38 24,27
31 25.6.2017 07:30 0 0 81,21 23,18
32 25.6.2017 07:00 0 0 86,25 22,35
33 25.6.2017 06:30 1,8 0 91,99 21,22
34 25.6.2017 06:00 2 0 92,65 20,4
35 25.6.2017 05:30 2 0 92,67 20,26
36 25.6.2017 05:00 2 0 92,56 20,02
37 25.6.2017 04:30 2 0 92,2 19,97
38 25.6.2017 04:00 2 0 91,5 20,23
39 25.6.2017 03:30 1,77 0 90,4 20,6
40 25.6.2017 03:00 1 0 90,44 21,19
41 25.6.2017 02:30 2,7 0 91,51 21,05
42 25.6.2017 02:00 2,63 0 91,4 21,19
43 25.6.2017 01:30 2 0 92,28 21,28
44 25.6.2017 01:00 1,83 0 92,33 21,2
45 25.6.2017 00:30 1,07 0 92,06 21,13
© 2011 Ministrstvo za kmetijstvo, gozdarstvo in prehrano. Vse pravice pridržane.